Time;durP1;ratioP1;P1;durP2;ratioP2;P2;SDS_P1;SDS_P2;PMS_P1;PMS_P2;Temp;Humidity;BMP_temperature;BMP_pressure;BME280_temperature;BME280_humidity;BME280_pressure;Samples;Min_cycle;Max_cycle;Signal;HPM_P1;HPM_P2
2022/01/20 00:03:32;;;;;;;0.00;0.00;;;;;;;;;;4800055;29;20054;-86
2022/01/20 00:27:55;;;;;;;0.00;0.00;;;;;;;;;;4825304;29;20054;-85
2022/01/20 00:33:13;;;;;;;0.00;0.00;;;;;;;;;;4825215;29;20137;-85
2022/01/20 00:38:21;;;;;;;0.00;0.00;;;;;;;;;;4825086;29;20049;-87
2022/01/20 00:40:46;;;;;;;0.00;0.00;;;;;;;;;;4809310;29;20060;-86
2022/01/20 00:43:12;;;;;;;0.00;0.00;;;;;;;;;;4824915;29;20086;-86
2022/01/20 00:45:38;;;;;;;0.52;0.52;;;;;;;;;;4825275;29;20058;-86
2022/01/20 00:48:04;;;;;;;0.08;0.08;;;;;;;;;;4825094;29;20471;-86
2022/01/20 00:50:30;;;;;;;0.08;0.08;;;;;;;;;;4809860;29;20045;-85
2022/01/20 00:52:56;;;;;;;0.10;0.10;;;;;;;;;;4809783;29;20114;-85
2022/01/20 00:55:22;;;;;;;0.10;0.10;;;;;;;;;;4824938;29;20038;-85
2022/01/20 00:57:48;;;;;;;0.10;0.10;;;;;;;;;;4825274;29;20056;-85
2022/01/20 01:00:14;;;;;;;0.10;0.10;;;;;;;;;;4809673;29;20045;-85
2022/01/20 01:02:41;;;;;;;0.10;0.10;;;;;;;;;;4809859;29;20049;-87
2022/01/20 01:05:07;;;;;;;0.10;0.10;;;;;;;;;;4809735;29;20061;-87
2022/01/20 01:10:15;;;;;;;0.10;0.10;;;;;;;;;;4824752;29;20110;-86
2022/01/20 01:15:29;;;;;;;0.00;0.00;;;;;;;;;;4824744;29;20198;-86
2022/01/20 01:23:20;;;;;;;0.00;0.00;;;;;;;;;;4824683;29;20053;-87
2022/01/20 01:25:46;;;;;;;0.00;0.00;;;;;;;;;;4824761;29;20064;-87
2022/01/20 01:28:12;;;;;;;0.00;0.00;;;;;;;;;;4824721;29;20140;-87
2022/01/20 01:31:00;;;;;;;0.10;0.10;;;;;;;;;;4809512;29;20594;-87
2022/01/20 01:33:25;;;;;;;0.10;0.10;;;;;;;;;;4824622;29;20057;-87
2022/01/20 01:35:56;;;;;;;0.10;0.10;;;;;;;;;;4824607;29;20412;-87
2022/01/20 01:38:35;;;;;;;3.13;0.20;;;;;;;;;;4824424;29;20054;-86
2022/01/20 01:41:01;;;;;;;0.10;0.10;;;;;;;;;;4811278;29;20512;-86
2022/01/20 01:43:30;;;;;;;0.10;0.10;;;;;;;;;;4809313;29;20089;-86
2022/01/20 01:45:56;;;;;;;0.08;0.08;;;;;;;;;;4824366;29;20050;-85
2022/01/20 01:48:22;;;;;;;0.00;0.00;;;;;;;;;;4809268;29;20053;-87
2022/01/20 01:50:48;;;;;;;0.10;0.10;;;;;;;;;;4824453;29;20042;-86
2022/01/20 01:53:16;;;;;;;0.10;0.10;;;;;;;;;;4812504;29;20069;-86
2022/01/20 01:55:42;;;;;;;0.10;0.10;;;;;;;;;;4812619;29;20052;-86
2022/01/20 01:58:08;;;;;;;0.35;0.35;;;;;;;;;;4827426;29;20137;-85
2022/01/20 02:00:35;;;;;;;0.00;0.00;;;;;;;;;;4827613;29;20046;-87
2022/01/20 02:03:01;;;;;;;0.00;0.00;;;;;;;;;;4827424;29;20054;-86
2022/01/20 02:05:27;;;;;;;0.10;0.10;;;;;;;;;;4827465;29;20046;-86
2022/01/20 02:18:53;;;;;;;0.10;0.10;;;;;;;;;;4827381;29;20490;-86
2022/01/20 02:21:19;;;;;;;0.10;0.10;;;;;;;;;;4826982;29;20095;-86
2022/01/20 02:23:45;;;;;;;0.10;0.10;;;;;;;;;;4812309;29;20052;-84
2022/01/20 02:26:11;;;;;;;0.10;0.10;;;;;;;;;;4826990;29;20050;-85
2022/01/20 02:28:37;;;;;;;0.00;0.00;;;;;;;;;;4827079;29;20118;-86
2022/01/20 02:31:03;;;;;;;0.00;0.00;;;;;;;;;;4812047;29;20506;-84
2022/01/20 02:33:31;;;;;;;0.10;0.10;;;;;;;;;;4811925;29;20061;-84
2022/01/20 02:36:06;;;;;;;0.10;0.10;;;;;;;;;;4826820;29;20499;-84
2022/01/20 02:38:38;;;;;;;0.00;0.00;;;;;;;;;;4827038;29;20472;-85
2022/01/20 02:46:34;;;;;;;0.10;0.10;;;;;;;;;;4814091;29;20050;-85
2022/01/20 02:49:00;;;;;;;0.10;0.10;;;;;;;;;;4811523;29;20517;-85
2022/01/20 02:51:26;;;;;;;0.10;0.10;;;;;;;;;;4811982;29;20073;-85
2022/01/20 02:53:52;;;;;;;0.10;0.10;;;;;;;;;;4826556;29;20051;-85
2022/01/20 02:56:18;;;;;;;0.10;0.10;;;;;;;;;;4826397;29;20053;-84
2022/01/20 02:58:44;;;;;;;0.10;0.10;;;;;;;;;;4826726;29;20118;-85
2022/01/20 03:01:10;;;;;;;0.10;0.10;;;;;;;;;;4811412;29;20490;-85
2022/01/20 03:03:36;;;;;;;0.13;0.10;;;;;;;;;;4810310;29;20154;-85
2022/01/20 03:06:03;;;;;;;0.00;0.00;;;;;;;;;;4826184;29;20048;-85
2022/01/20 03:08:28;;;;;;;0.10;0.10;;;;;;;;;;4826316;29;20132;-84
2022/01/20 03:10:54;;;;;;;0.10;0.10;;;;;;;;;;4826536;29;20125;-85
2022/01/20 03:13:20;;;;;;;0.10;0.10;;;;;;;;;;4825947;29;20048;-84
2022/01/20 03:15:46;;;;;;;0.10;0.10;;;;;;;;;;4826229;29;20347;-85
2022/01/20 03:18:12;;;;;;;0.10;0.10;;;;;;;;;;4811227;29;20054;-85
2022/01/20 03:20:38;;;;;;;0.08;0.08;;;;;;;;;;4826428;29;20046;-83
2022/01/20 03:23:04;;;;;;;0.05;0.05;;;;;;;;;;4811091;29;20085;-85
2022/01/20 03:25:30;;;;;;;0.10;0.10;;;;;;;;;;4826214;29;20088;-85
2022/01/20 03:27:56;;;;;;;0.00;0.00;;;;;;;;;;4811146;29;20045;-85
2022/01/20 03:30:23;;;;;;;0.00;0.00;;;;;;;;;;4810971;29;20041;-86
2022/01/20 03:32:49;;;;;;;8.30;0.22;;;;;;;;;;4825978;29;20041;-85
2022/01/20 03:35:15;;;;;;;0.00;0.00;;;;;;;;;;4826208;29;20125;-85
2022/01/20 03:37:41;;;;;;;9.75;0.52;;;;;;;;;;4826084;29;20129;-85
2022/01/20 03:40:07;;;;;;;0.10;0.10;;;;;;;;;;4811022;29;20463;-85
2022/01/20 03:42:33;;;;;;;0.10;0.10;;;;;;;;;;4810808;29;20046;-86
2022/01/20 03:44:59;;;;;;;0.10;0.10;;;;;;;;;;4826216;29;20053;-85
2022/01/20 03:47:26;;;;;;;1.00;0.40;;;;;;;;;;4825981;29;20069;-85
2022/01/20 03:52:24;;;;;;;0.08;0.08;;;;;;;;;;4825813;29;20495;-85
2022/01/20 03:54:50;;;;;;;0.10;0.10;;;;;;;;;;4825841;29;20049;-85
2022/01/20 03:57:16;;;;;;;0.10;0.10;;;;;;;;;;4810473;29;20052;-85
2022/01/20 03:59:42;;;;;;;0.10;0.10;;;;;;;;;;4810435;29;20133;-86
2022/01/20 04:02:08;;;;;;;0.10;0.10;;;;;;;;;;4825637;29;20128;-86
2022/01/20 04:04:34;;;;;;;0.25;0.25;;;;;;;;;;4825772;29;20521;-86
2022/01/20 04:07:00;;;;;;;0.10;0.10;;;;;;;;;;4810553;29;20041;-85
2022/01/20 04:09:26;;;;;;;0.10;0.10;;;;;;;;;;4810561;29;20042;-85
2022/01/20 04:11:52;;;;;;;0.10;0.10;;;;;;;;;;4810275;29;20432;-87
2022/01/20 04:14:19;;;;;;;1.10;0.88;;;;;;;;;;4810140;29;20041;-85
2022/01/20 04:17:04;;;;;;;0.10;0.10;;;;;;;;;;4825501;29;20053;-85
2022/01/20 04:19:32;;;;;;;3.20;0.30;;;;;;;;;;4825542;29;20048;-86
2022/01/20 04:21:58;;;;;;;0.10;0.10;;;;;;;;;;4825444;29;20050;-85
2022/01/20 04:24:24;;;;;;;0.10;0.10;;;;;;;;;;4825740;29;20046;-85
2022/01/20 04:26:50;;;;;;;0.10;0.10;;;;;;;;;;4810029;29;20478;-85
2022/01/20 04:29:16;;;;;;;0.10;0.10;;;;;;;;;;4825554;29;20049;-83
2022/01/20 04:31:42;;;;;;;0.10;0.10;;;;;;;;;;4825285;29;20041;-84
2022/01/20 04:34:08;;;;;;;0.10;0.10;;;;;;;;;;4825357;29;20046;-85
2022/01/20 04:36:37;;;;;;;0.10;0.10;;;;;;;;;;4825049;29;20089;-84
2022/01/20 04:39:04;;;;;;;0.10;0.10;;;;;;;;;;4825276;29;20454;-85
2022/01/20 04:41:30;;;;;;;0.10;0.10;;;;;;;;;;4810201;29;20379;-85
2022/01/20 04:43:56;;;;;;;0.10;0.10;;;;;;;;;;4825102;29;20476;-85
2022/01/20 04:46:32;;;;;;;0.10;0.10;;;;;;;;;;4825353;29;20042;-84
2022/01/20 04:57:03;;;;;;;0.10;0.10;;;;;;;;;;4809817;29;20095;-85
2022/01/20 04:57:25;;;;;;;0.10;0.10;;;;;;;;;;4824868;29;20041;-87
2022/01/20 04:59:51;;;;;;;0.00;0.00;;;;;;;;;;4824987;29;20467;-86
2022/01/20 05:02:17;;;;;;;0.10;0.10;;;;;;;;;;4809796;29;20469;-87
2022/01/20 05:04:43;;;;;;;0.10;0.10;;;;;;;;;;4824828;29;20072;-87
2022/01/20 05:07:17;;;;;;;0.10;0.10;;;;;;;;;;4825002;29;20093;-87
2022/01/20 05:09:43;;;;;;;0.10;0.10;;;;;;;;;;4824750;29;20098;-87
2022/01/20 05:12:13;;;;;;;0.10;0.10;;;;;;;;;;4809552;29;20046;-87
2022/01/20 05:14:39;;;;;;;0.75;0.30;;;;;;;;;;4809742;29;20046;-88
2022/01/20 05:17:05;;;;;;;0.10;0.10;;;;;;;;;;4824752;29;20517;-87
2022/01/20 05:19:31;;;;;;;0.10;0.10;;;;;;;;;;4824815;29;20385;-88
2022/01/20 05:21:57;;;;;;;0.73;0.73;;;;;;;;;;4824504;29;20042;-88
2022/01/20 05:24:23;;;;;;;0.10;0.10;;;;;;;;;;4809495;29;20077;-87
2022/01/20 05:26:53;;;;;;;0.10;0.10;;;;;;;;;;4810783;29;20088;-87
2022/01/20 05:29:19;;;;;;;0.10;0.10;;;;;;;;;;4827934;29;20046;-87
2022/01/20 05:31:45;;;;;;;0.10;0.10;;;;;;;;;;4813289;29;20431;-87
2022/01/20 05:34:11;;;;;;;0.98;0.10;;;;;;;;;;4812964;29;20049;-87
2022/01/20 05:36:37;;;;;;;0.10;0.10;;;;;;;;;;4812907;29;20554;-87
2022/01/20 05:39:03;;;;;;;0.00;0.00;;;;;;;;;;4827956;29;20089;-88
2022/01/20 05:41:31;;;;;;;0.10;0.10;;;;;;;;;;4812913;29;20079;-86
2022/01/20 05:43:57;;;;;;;0.00;0.00;;;;;;;;;;4827511;29;20061;-86
2022/01/20 05:46:26;;;;;;;0.10;0.10;;;;;;;;;;4812953;29;20046;-87
2022/01/20 05:48:56;;;;;;;0.10;0.10;;;;;;;;;;4827545;29;20078;-87
2022/01/20 05:51:22;;;;;;;0.75;0.30;;;;;;;;;;4827887;29;20398;-87
2022/01/20 05:53:48;;;;;;;0.10;0.10;;;;;;;;;;4827871;29;20042;-88
2022/01/20 05:56:14;;;;;;;0.10;0.10;;;;;;;;;;4812880;29;20498;-88
2022/01/20 05:58:40;;;;;;;0.10;0.10;;;;;;;;;;4812625;29;20132;-88
2022/01/20 06:01:09;;;;;;;0.10;0.10;;;;;;;;;;4828056;29;20491;-87
2022/01/20 06:03:38;;;;;;;0.05;0.05;;;;;;;;;;4812656;29;20042;-88
2022/01/20 06:06:04;;;;;;;0.00;0.00;;;;;;;;;;4827806;29;20042;-87
2022/01/20 06:08:30;;;;;;;0.10;0.10;;;;;;;;;;4827393;29;20483;-86
2022/01/20 06:10:56;;;;;;;0.10;0.10;;;;;;;;;;4812447;29;20038;-89
2022/01/20 06:13:22;;;;;;;0.10;0.10;;;;;;;;;;4827427;29;20419;-88
2022/01/20 06:15:48;;;;;;;0.10;0.10;;;;;;;;;;4827490;29;20046;-88
2022/01/20 06:18:14;;;;;;;0.00;0.00;;;;;;;;;;4812717;29;20427;-88
2022/01/20 06:20:40;;;;;;;0.10;0.10;;;;;;;;;;4812500;29;20104;-88
2022/01/20 06:23:07;;;;;;;0.10;0.10;;;;;;;;;;4812517;29;20081;-88
2022/01/20 06:25:33;;;;;;;0.10;0.10;;;;;;;;;;4827458;29;20081;-86
2022/01/20 06:27:59;;;;;;;0.10;0.10;;;;;;;;;;4827338;29;20466;-86
2022/01/20 06:30:25;;;;;;;0.10;0.10;;;;;;;;;;4812077;29;20065;-86
2022/01/20 06:32:51;;;;;;;0.10;0.10;;;;;;;;;;4812228;29;20121;-86
2022/01/20 06:35:17;;;;;;;0.10;0.10;;;;;;;;;;4827116;29;20406;-86
2022/01/20 06:37:43;;;;;;;0.10;0.10;;;;;;;;;;4827021;29;20046;-86
2022/01/20 06:40:09;;;;;;;0.00;0.00;;;;;;;;;;4812243;29;20491;-86
2022/01/20 06:42:35;;;;;;;0.10;0.10;;;;;;;;;;4812228;29;20479;-86
2022/01/20 06:45:02;;;;;;;0.10;0.10;;;;;;;;;;4811998;29;20088;-85
2022/01/20 06:47:28;;;;;;;0.00;0.00;;;;;;;;;;4826895;29;20089;-86
2022/01/20 06:49:54;;;;;;;0.00;0.00;;;;;;;;;;4826740;29;20081;-86
2022/01/20 06:52:20;;;;;;;0.10;0.10;;;;;;;;;;4811728;29;20046;-86
2022/01/20 06:54:45;;;;;;;0.10;0.10;;;;;;;;;;4811907;29;20038;-86
2022/01/20 06:57:11;;;;;;;0.10;0.10;;;;;;;;;;4811776;29;20280;-86
2022/01/20 06:59:37;;;;;;;0.32;0.22;;;;;;;;;;4811833;29;20053;-86
2022/01/20 07:02:03;;;;;;;0.22;0.22;;;;;;;;;;4811600;29;20406;-86
2022/01/20 07:04:32;;;;;;;0.10;0.10;;;;;;;;;;4826404;29;20045;-86
2022/01/20 07:06:58;;;;;;;0.00;0.00;;;;;;;;;;4826310;29;20121;-86
2022/01/20 07:09:24;;;;;;;0.00;0.00;;;;;;;;;;4811409;29;20128;-85
2022/01/20 07:11:50;;;;;;;0.90;0.90;;;;;;;;;;4826602;29;20394;-86
2022/01/20 07:14:16;;;;;;;0.10;0.10;;;;;;;;;;4826690;29;20049;-85
2022/01/20 07:16:42;;;;;;;0.03;0.03;;;;;;;;;;4811411;29;20053;-84
2022/01/20 07:19:08;;;;;;;0.22;0.08;;;;;;;;;;4826504;29;20403;-85
2022/01/20 07:21:34;;;;;;;0.00;0.00;;;;;;;;;;4826250;29;20050;-85
2022/01/20 07:24:00;;;;;;;0.10;0.10;;;;;;;;;;4826005;29;20041;-85
2022/01/20 07:26:26;;;;;;;0.10;0.10;;;;;;;;;;4826569;29;20045;-85
2022/01/20 07:28:51;;;;;;;0.00;0.00;;;;;;;;;;4811018;29;20045;-85
2022/01/20 07:31:22;;;;;;;0.10;0.10;;;;;;;;;;4811387;29;20054;-83
2022/01/20 07:33:48;;;;;;;0.03;0.03;;;;;;;;;;4810832;29;20487;-82
2022/01/20 07:36:14;;;;;;;0.00;0.00;;;;;;;;;;4810554;29;20122;-83
2022/01/20 07:38:40;;;;;;;0.10;0.10;;;;;;;;;;4826102;29;20459;-83
2022/01/20 07:41:06;;;;;;;0.05;0.05;;;;;;;;;;4810890;29;20054;-84
2022/01/20 07:43:32;;;;;;;0.00;0.00;;;;;;;;;;4810813;29;20042;-83
2022/01/20 07:45:58;;;;;;;0.10;0.10;;;;;;;;;;4811094;29;20069;-83
2022/01/20 07:48:24;;;;;;;0.10;0.10;;;;;;;;;;4810639;29;20050;-83
2022/01/20 07:50:50;;;;;;;0.10;0.10;;;;;;;;;;4825264;29;20505;-84
2022/01/20 07:53:16;;;;;;;0.00;0.00;;;;;;;;;;4810598;29;20038;-84
2022/01/20 07:55:42;;;;;;;0.08;0.08;;;;;;;;;;4825984;29;20041;-83
2022/01/20 07:58:08;;;;;;;0.00;0.00;;;;;;;;;;4825810;29;20054;-84
2022/01/20 08:00:34;;;;;;;0.10;0.10;;;;;;;;;;4825949;29;20172;-83
2022/01/20 08:03:00;;;;;;;0.10;0.10;;;;;;;;;;4810438;29;20398;-82
2022/01/20 08:05:26;;;;;;;0.10;0.10;;;;;;;;;;4825631;29;20110;-82
2022/01/20 08:07:52;;;;;;;0.10;0.10;;;;;;;;;;4810570;29;20132;-82
2022/01/20 08:10:18;;;;;;;0.65;0.65;;;;;;;;;;4825428;29;20045;-82
2022/01/20 08:12:44;;;;;;;0.10;0.10;;;;;;;;;;4825509;29;20046;-83
2022/01/20 08:15:12;;;;;;;0.10;0.10;;;;;;;;;;4810294;29;20042;-82
2022/01/20 08:17:38;;;;;;;0.10;0.10;;;;;;;;;;4825691;29;20393;-82
2022/01/20 08:20:05;;;;;;;0.10;0.10;;;;;;;;;;4825318;29;20595;-82
2022/01/20 08:22:34;;;;;;;0.10;0.10;;;;;;;;;;4825203;29;20045;-81
2022/01/20 08:25:00;;;;;;;0.10;0.10;;;;;;;;;;4810002;29;20053;-83
2022/01/20 08:27:26;;;;;;;0.00;0.00;;;;;;;;;;4825387;29;20398;-86
2022/01/20 08:29:52;;;;;;;0.10;0.10;;;;;;;;;;4810126;29;20124;-83
2022/01/20 08:32:18;;;;;;;0.10;0.10;;;;;;;;;;4825154;29;20064;-85
2022/01/20 08:34:44;;;;;;;0.10;0.10;;;;;;;;;;4810070;29;20077;-84
2022/01/20 08:37:10;;;;;;;0.10;0.10;;;;;;;;;;4821550;29;20050;-84
2022/01/20 08:39:43;;;;;;;0.10;0.10;;;;;;;;;;4791148;29;20637;-84
2022/01/20 08:42:09;;;;;;;0.10;0.10;;;;;;;;;;4791065;29;20047;-85
2022/01/20 08:44:35;;;;;;;0.38;0.20;;;;;;;;;;4791104;29;20078;-85
2022/01/20 08:47:02;;;;;;;0.10;0.10;;;;;;;;;;4790981;29;20069;-84
2022/01/20 08:49:28;;;;;;;0.10;0.10;;;;;;;;;;4806107;29;20050;-86
2022/01/20 08:51:54;;;;;;;0.10;0.10;;;;;;;;;;4791043;29;20556;-84
2022/01/20 08:54:20;;;;;;;0.00;0.00;;;;;;;;;;4791004;29;20097;-82
2022/01/20 08:56:46;;;;;;;0.10;0.10;;;;;;;;;;4805959;29;20094;-87
2022/01/20 08:59:12;;;;;;;0.00;0.00;;;;;;;;;;4790978;29;20082;-82
2022/01/20 09:01:39;;;;;;;0.20;0.20;;;;;;;;;;4804708;29;20050;-83
2022/01/20 09:04:05;;;;;;;0.10;0.10;;;;;;;;;;4790784;29;20095;-85
2022/01/20 09:06:31;;;;;;;0.00;0.00;;;;;;;;;;4805842;29;20456;-84
2022/01/20 09:08:57;;;;;;;0.03;0.03;;;;;;;;;;4790841;29;20504;-86
2022/01/20 09:11:25;;;;;;;0.00;0.00;;;;;;;;;;4791057;29;20180;-87
2022/01/20 09:16:36;;;;;;;0.00;0.00;;;;;;;;;;4808290;29;20050;-86
2022/01/20 09:19:02;;;;;;;0.10;0.10;;;;;;;;;;4790849;29;20102;-87
2022/01/20 09:21:28;;;;;;;0.00;0.00;;;;;;;;;;4805504;29;20515;-87
2022/01/20 09:23:54;;;;;;;0.10;0.10;;;;;;;;;;4790912;29;20058;-88
2022/01/20 09:26:20;;;;;;;0.10;0.10;;;;;;;;;;4790795;29;20201;-87
2022/01/20 09:28:46;;;;;;;0.10;0.10;;;;;;;;;;4790698;29;20589;-88
2022/01/20 09:31:12;;;;;;;0.10;0.10;;;;;;;;;;4788938;29;20396;-89
2022/01/20 09:33:39;;;;;;;0.10;0.10;;;;;;;;;;4790319;29;20040;-88
2022/01/20 09:36:09;;;;;;;0.10;0.10;;;;;;;;;;4771948;29;1022920;-88
2022/01/20 09:38:35;;;;;;;0.00;0.00;;;;;;;;;;4842529;29;20420;-90
2022/01/20 09:41:01;;;;;;;0.00;0.00;;;;;;;;;;4826485;29;20152;-90
2022/01/20 09:43:27;;;;;;;0.00;0.00;;;;;;;;;;4824461;29;20485;-88
2022/01/20 09:45:55;;;;;;;0.10;0.10;;;;;;;;;;4824717;29;20110;-88
2022/01/20 09:48:21;;;;;;;0.00;0.00;;;;;;;;;;4818429;29;20128;-88
2022/01/20 09:50:47;;;;;;;0.10;0.10;;;;;;;;;;4827779;29;20045;-89
2022/01/20 09:53:13;;;;;;;0.10;0.10;;;;;;;;;;4827428;29;20443;-88
2022/01/20 09:55:39;;;;;;;0.10;0.10;;;;;;;;;;4827607;29;20414;-89
2022/01/20 09:58:05;;;;;;;0.15;0.15;;;;;;;;;;4842626;29;20136;-88
2022/01/20 10:00:31;;;;;;;0.00;0.00;;;;;;;;;;4827328;29;20053;-88
2022/01/20 10:03:06;;;;;;;0.15;0.15;;;;;;;;;;4842382;29;20489;-89
2022/01/20 10:05:36;;;;;;;0.00;0.00;;;;;;;;;;4827246;29;20069;-88
2022/01/20 10:08:10;;;;;;;0.45;0.43;;;;;;;;;;4827160;29;20054;-89
2022/01/20 10:10:40;;;;;;;0.10;0.10;;;;;;;;;;4827228;29;20090;-88
2022/01/20 10:13:07;;;;;;;0.00;0.00;;;;;;;;;;4844005;29;20044;-88
2022/01/20 10:15:33;;;;;;;1.45;0.90;;;;;;;;;;4845796;29;20090;-88
2022/01/20 10:18:12;;;;;;;0.00;0.00;;;;;;;;;;4830394;29;20049;-89
2022/01/20 10:20:50;;;;;;;0.10;0.10;;;;;;;;;;4830700;29;20406;-88
2022/01/20 10:23:26;;;;;;;0.30;0.30;;;;;;;;;;4845617;29;20061;-86
2022/01/20 10:25:52;;;;;;;0.10;0.10;;;;;;;;;;4830497;29;20442;-86
2022/01/20 10:28:18;;;;;;;0.10;0.10;;;;;;;;;;4830237;29;20090;-88
2022/01/20 10:30:44;;;;;;;0.10;0.10;;;;;;;;;;4830347;29;20093;-87
2022/01/20 10:33:10;;;;;;;0.00;0.00;;;;;;;;;;4829917;29;20128;-85
2022/01/20 10:35:38;;;;;;;0.00;0.00;;;;;;;;;;4845264;29;20053;-85
2022/01/20 10:38:13;;;;;;;0.00;0.00;;;;;;;;;;4829936;29;20053;-84
2022/01/20 10:40:46;;;;;;;0.08;0.08;;;;;;;;;;4845806;29;20557;-86
2022/01/20 10:43:19;;;;;;;0.00;0.00;;;;;;;;;;4845243;29;20533;-88
2022/01/20 10:45:45;;;;;;;0.10;0.10;;;;;;;;;;4845396;29;20521;-87
2022/01/20 10:48:16;;;;;;;0.00;0.00;;;;;;;;;;4830025;29;20053;-88
2022/01/20 10:50:43;;;;;;;0.10;0.10;;;;;;;;;;4829649;29;20276;-87
2022/01/20 10:53:21;;;;;;;0.10;0.10;;;;;;;;;;4829863;29;20045;-86
2022/01/20 10:55:47;;;;;;;0.05;0.05;;;;;;;;;;4845193;29;20041;-86
2022/01/20 10:58:15;;;;;;;0.10;0.10;;;;;;;;;;4829770;29;20054;-87
2022/01/20 11:00:42;;;;;;;0.10;0.10;;;;;;;;;;4844989;29;20057;-87
2022/01/20 11:03:08;;;;;;;0.00;0.00;;;;;;;;;;4845241;29;20057;-85
2022/01/20 11:05:34;;;;;;;0.10;0.10;;;;;;;;;;4861717;29;20490;-86
2022/01/20 11:08:00;;;;;;;1.27;1.17;;;;;;;;;;4844613;29;20042;-86
2022/01/20 11:10:26;;;;;;;0.00;0.00;;;;;;;;;;4813465;29;20042;-86
2022/01/20 11:12:52;;;;;;;0.10;0.10;;;;;;;;;;4811622;29;20450;-85
2022/01/20 11:15:19;;;;;;;0.08;0.08;;;;;;;;;;4826715;29;20129;-86
2022/01/20 11:17:45;;;;;;;0.10;0.10;;;;;;;;;;4826706;29;20503;-85
2022/01/20 11:20:12;;;;;;;0.00;0.00;;;;;;;;;;4812142;29;20045;-86
2022/01/20 11:22:39;;;;;;;0.10;0.10;;;;;;;;;;4811448;29;20133;-86
2022/01/20 11:25:08;;;;;;;0.10;0.10;;;;;;;;;;4810201;29;20084;-88
2022/01/20 11:27:43;;;;;;;0.00;0.00;;;;;;;;;;4825689;29;20503;-86
2022/01/20 11:30:14;;;;;;;0.10;0.10;;;;;;;;;;4826154;29;20467;-86
2022/01/20 11:32:40;;;;;;;0.10;0.10;;;;;;;;;;4810729;29;20045;-86
2022/01/20 11:35:07;;;;;;;0.10;0.10;;;;;;;;;;4838051;29;20506;-85
2022/01/20 11:37:37;;;;;;;0.10;0.10;;;;;;;;;;4828903;29;20502;-88
2022/01/20 11:40:15;;;;;;;0.00;0.00;;;;;;;;;;4843900;29;20053;-88
2022/01/20 11:42:41;;;;;;;0.10;0.10;;;;;;;;;;4844150;29;20088;-88
2022/01/20 11:45:24;;;;;;;0.10;0.10;;;;;;;;;;4844083;29;20147;-87
2022/01/20 11:47:50;;;;;;;0.10;0.10;;;;;;;;;;4829051;29;20387;-91
2022/01/20 11:50:17;;;;;;;0.10;0.10;;;;;;;;;;4828912;29;20147;-89
2022/01/20 11:52:43;;;;;;;0.10;0.10;;;;;;;;;;4828762;29;20049;-88
2022/01/20 11:55:15;;;;;;;0.10;0.10;;;;;;;;;;4828742;29;20063;-89
2022/01/20 11:57:41;;;;;;;1.42;0.40;;;;;;;;;;4843876;29;20084;-88
2022/01/20 12:00:18;;;;;;;0.05;0.05;;;;;;;;;;4828872;29;20056;-87
2022/01/20 12:02:44;;;;;;;0.10;0.10;;;;;;;;;;4843836;29;20041;-87
2022/01/20 12:05:27;;;;;;;0.10;0.10;;;;;;;;;;4843740;29;20077;-86
2022/01/20 12:08:06;;;;;;;0.10;0.10;;;;;;;;;;4828505;29;20088;-87
2022/01/20 12:10:32;;;;;;;0.10;0.10;;;;;;;;;;4843615;29;20048;-88
2022/01/20 12:13:11;;;;;;;0.10;0.10;;;;;;;;;;4828495;29;20561;-86
2022/01/20 12:15:47;;;;;;;0.10;0.10;;;;;;;;;;4818503;29;21129;-86
2022/01/20 12:18:13;;;;;;;0.25;0.25;;;;;;;;;;4824974;29;20050;-86
2022/01/20 12:20:39;;;;;;;0.10;0.10;;;;;;;;;;4842001;29;20574;-87
2022/01/20 12:23:05;;;;;;;0.10;0.10;;;;;;;;;;4843257;29;20455;-85
2022/01/20 12:25:33;;;;;;;0.10;0.10;;;;;;;;;;4843449;29;20052;-85
2022/01/20 12:28:05;;;;;;;0.00;0.00;;;;;;;;;;4827840;29;20045;-86
2022/01/20 12:30:31;;;;;;;;;;;;;;;;;;4828777;29;20076;-85
2022/01/20 12:32:58;;;;;;;0.10;0.10;;;;;;;;;;4842964;29;20427;-85
2022/01/20 12:35:24;;;;;;;0.10;0.10;;;;;;;;;;4842752;29;20410;-86
2022/01/20 12:37:50;;;;;;;0.00;0.00;;;;;;;;;;4828413;29;20081;-86
2022/01/20 12:40:22;;;;;;;0.10;0.10;;;;;;;;;;4843165;29;20170;-89
2022/01/20 12:42:48;;;;;;;0.10;0.10;;;;;;;;;;4828250;29;20079;-89
2022/01/20 12:45:56;;;;;;;0.10;0.10;;;;;;;;;;4843325;29;20172;-85
2022/01/20 12:48:22;;;;;;;9.32;0.20;;;;;;;;;;4843087;29;20052;-86
2022/01/20 12:50:55;;;;;;;0.20;0.20;;;;;;;;;;4843331;29;20045;-86
2022/01/20 12:53:34;;;;;;;0.10;0.10;;;;;;;;;;4843353;29;20100;-86
2022/01/20 12:56:00;;;;;;;2.08;0.40;;;;;;;;;;4828272;29;20449;-86
2022/01/20 12:58:26;;;;;;;0.10;0.10;;;;;;;;;;4817294;29;20064;-85
2022/01/20 13:01:01;;;;;;;0.10;0.10;;;;;;;;;;4825211;29;20050;-84
2022/01/20 13:03:36;;;;;;;0.10;0.10;;;;;;;;;;4809957;29;20399;-84
2022/01/20 13:06:03;;;;;;;0.17;0.17;;;;;;;;;;4809845;29;20448;-85
2022/01/20 13:08:32;;;;;;;0.00;0.00;;;;;;;;;;4825060;29;20057;-85
2022/01/20 13:11:03;;;;;;;0.30;0.30;;;;;;;;;;4809664;29;20046;-85
2022/01/20 13:13:29;;;;;;;0.00;0.00;;;;;;;;;;4825071;29;20073;-85
2022/01/20 13:15:54;;;;;;;0.00;0.00;;;;;;;;;;4824858;29;20046;-84
2022/01/20 13:18:20;;;;;;;0.10;0.10;;;;;;;;;;4825129;29;20046;-82
2022/01/20 13:20:58;;;;;;;0.65;0.43;;;;;;;;;;4824943;29;20129;-83
2022/01/20 13:26:02;;;;;;;0.60;0.50;;;;;;;;;;4824796;29;20098;-83
2022/01/20 13:28:28;;;;;;;0.10;0.10;;;;;;;;;;4820457;29;20415;-83
2022/01/20 13:30:54;;;;;;;0.10;0.10;;;;;;;;;;4842769;29;20051;-82
2022/01/20 13:33:23;;;;;;;0.43;0.43;;;;;;;;;;4825917;29;20057;-82
2022/01/20 13:35:56;;;;;;;0.10;0.10;;;;;;;;;;4837430;29;20065;-82
2022/01/20 13:38:29;;;;;;;1.23;0.35;;;;;;;;;;4843447;29;20061;-85
2022/01/20 13:41:06;;;;;;;0.10;0.10;;;;;;;;;;4842694;29;20065;-82
2022/01/20 13:46:20;;;;;;;0.10;0.10;;;;;;;;;;4847887;29;20046;-85
2022/01/20 13:48:46;;;;;;;0.10;0.10;;;;;;;;;;4843603;29;20046;-85
2022/01/20 13:51:14;;;;;;;1.25;1.25;;;;;;;;;;4844326;29;20401;-85
2022/01/20 13:53:40;;;;;;;0.80;0.13;;;;;;;;;;4827519;29;20060;-83
2022/01/20 13:56:10;;;;;;;0.10;0.10;;;;;;;;;;4827704;29;20050;-83
2022/01/20 13:58:38;;;;;;;0.10;0.10;;;;;;;;;;4812923;29;20056;-82
2022/01/20 14:01:08;;;;;;;0.10;0.10;;;;;;;;;;4827464;29;20052;-82
2022/01/20 14:03:34;;;;;;;0.10;0.10;;;;;;;;;;4827792;29;20414;-82
2022/01/20 14:06:00;;;;;;;1.65;1.55;;;;;;;;;;4827721;29;20057;-82
2022/01/20 14:08:26;;;;;;;0.35;0.17;;;;;;;;;;4827357;29;20387;-83
2022/01/20 14:10:52;;;;;;;0.10;0.10;;;;;;;;;;4844728;29;20521;-83
2022/01/20 14:13:18;;;;;;;0.10;0.10;;;;;;;;;;4845938;29;20132;-82
2022/01/20 14:15:44;;;;;;;0.10;0.10;;;;;;;;;;4845758;29;20170;-82
2022/01/20 14:18:10;;;;;;;0.10;0.10;;;;;;;;;;4862430;29;20046;-82
2022/01/20 14:20:37;;;;;;;0.10;0.10;;;;;;;;;;4845657;29;20060;-82
2022/01/20 14:23:04;;;;;;;0.10;0.10;;;;;;;;;;4830550;29;20193;-82
2022/01/20 14:25:30;;;;;;;0.10;0.10;;;;;;;;;;4845501;29;20109;-82
2022/01/20 14:27:56;;;;;;;0.10;0.10;;;;;;;;;;4830353;29;20053;-81
2022/01/20 14:30:22;;;;;;;0.10;0.10;;;;;;;;;;4845547;29;20116;-82
2022/01/20 14:32:48;;;;;;;0.10;0.10;;;;;;;;;;4830107;29;20140;-82
2022/01/20 14:35:14;;;;;;;0.20;0.20;;;;;;;;;;4830099;29;20065;-83
2022/01/20 14:37:40;;;;;;;0.10;0.10;;;;;;;;;;4830197;29;20481;-83
2022/01/20 14:40:07;;;;;;;1.67;0.20;;;;;;;;;;4845449;29;20128;-83
2022/01/20 14:42:32;;;;;;;0.10;0.10;;;;;;;;;;4845659;29;20384;-83
2022/01/20 14:44:58;;;;;;;0.10;0.10;;;;;;;;;;4830135;29;20053;-83
2022/01/20 14:47:24;;;;;;;0.00;0.00;;;;;;;;;;4845293;29;20497;-82
2022/01/20 14:49:50;;;;;;;0.10;0.10;;;;;;;;;;4845437;29;20041;-83
2022/01/20 14:52:16;;;;;;;0.10;0.10;;;;;;;;;;4845054;29;20052;-83
2022/01/20 14:54:42;;;;;;;0.43;0.10;;;;;;;;;;4845048;29;20042;-83
2022/01/20 14:57:08;;;;;;;0.10;0.10;;;;;;;;;;4845083;29;20045;-84
2022/01/20 14:59:34;;;;;;;0.10;0.10;;;;;;;;;;4843896;29;20052;-86
2022/01/20 15:02:01;;;;;;;0.00;0.00;;;;;;;;;;4811834;29;20174;-83
2022/01/20 15:04:27;;;;;;;0.10;0.10;;;;;;;;;;4826776;29;20091;-82
2022/01/20 15:06:52;;;;;;;0.10;0.10;;;;;;;;;;4826747;29;20084;-82
2022/01/20 15:09:19;;;;;;;0.10;0.10;;;;;;;;;;4826342;29;20061;-81
2022/01/20 15:11:45;;;;;;;0.10;0.10;;;;;;;;;;4810934;29;20122;-81
2022/01/20 15:14:10;;;;;;;0.10;0.10;;;;;;;;;;4826218;29;20336;-82
2022/01/20 15:16:36;;;;;;;0.20;0.20;;;;;;;;;;4826020;29;20046;-83
2022/01/20 15:19:05;;;;;;;0.10;0.10;;;;;;;;;;4825880;29;20094;-83
2022/01/20 15:21:31;;;;;;;0.10;0.10;;;;;;;;;;4826301;29;20080;-82
2022/01/20 15:23:57;;;;;;;0.00;0.00;;;;;;;;;;4810988;29;20102;-83
2022/01/20 15:26:23;;;;;;;0.10;0.10;;;;;;;;;;4826416;29;20046;-83
2022/01/20 15:28:53;;;;;;;0.10;0.10;;;;;;;;;;4825721;29;20054;-83
2022/01/20 15:31:20;;;;;;;0.10;0.10;;;;;;;;;;4810743;29;20598;-83
2022/01/20 15:33:46;;;;;;;0.10;0.10;;;;;;;;;;4825585;29;20074;-83
2022/01/20 15:36:13;;;;;;;0.00;0.00;;;;;;;;;;4834546;29;20050;-83
2022/01/20 15:38:39;;;;;;;0.35;0.35;;;;;;;;;;4844197;29;20064;-83
2022/01/20 15:41:05;;;;;;;0.10;0.10;;;;;;;;;;4860494;29;20045;-84
2022/01/20 15:43:31;;;;;;;0.10;0.10;;;;;;;;;;4828502;29;20557;-84
2022/01/20 15:46:01;;;;;;;0.10;0.10;;;;;;;;;;4843857;29;20065;-83
2022/01/20 15:48:27;;;;;;;0.10;0.10;;;;;;;;;;4844114;29;20372;-83
2022/01/20 15:50:53;;;;;;;0.10;0.10;;;;;;;;;;4843731;29;20037;-83
2022/01/20 15:53:19;;;;;;;0.10;0.10;;;;;;;;;;4843636;29;20093;-83
2022/01/20 15:55:45;;;;;;;0.20;0.20;;;;;;;;;;4828630;29;20042;-83
2022/01/20 15:58:11;;;;;;;0.10;0.10;;;;;;;;;;4828770;29;20052;-84